Liberty of The Seas — C6VQ8 — position and weather

sailwx.info

Track history (hours):
 
Tides and Currents Weather Stations Pressure Air Temp Water Temp Dewpoint Dewpoint Depression Visibility Wind Speed Wind Dir Waves Ship Positions

Liberty of The Seas

Last reported at 2017-May-24 03:00 UTC. Time now 2017-May-25 02:54 UTC.
Position N 20°18' W 085°18'.

Type: Passenger vessel. MMSI: 309436000.

Wind from 150 at 25 knots

Barometer 1011.0 mb
Visibility: greater than 10.8 NM

Date/timePositionNaut miles runAvg speedWind from/ knotsBaromVisibWave heightAir tempDewpointWater temp
2017-May-24 03:00N 20°18' W 085°18'9318.6 150 / 251011.010.8
2017-May-23 22:01N 20°36' W 086°55'020.1
2017-May-23 22:00N 20°35' W 086°55'714.2
2017-May-23 21:30N 20°29' W 086°59'0 0.3
2017-May-23 20:58N 20°29' W 086°59'0 0.0
2017-May-23 20:28N 20°29' W 086°59'0 0.0
2017-May-23 19:58N 20°29' W 086°59'0 0.0
2017-May-23 19:28N 20°29' W 086°59'0 0.0
2017-May-23 18:58N 20°29' W 086°59'0 0.0
2017-May-23 18:28N 20°29' W 086°59'0 0.0
2017-May-23 17:31N 20°29' W 086°59'0 0.0
2017-May-23 17:25N 20°29' W 086°59'0 0.0
2017-May-23 16:55N 20°29' W 086°59'0 0.0
2017-May-23 16:28N 20°29' W 086°59'0 0.0
2017-May-23 15:58N 20°29' W 086°59'0 0.0
2017-May-23 15:28N 20°29' W 086°59'0 0.0
2017-May-23 14:58N 20°29' W 086°59'0 0.0
2017-May-23 14:28N 20°29' W 086°59'0 0.0
2017-May-23 13:28N 20°29' W 086°59'0 0.0
2017-May-23 12:58N 20°29' W 086°59'0 0.0
2017-May-23 12:28N 20°29' W 086°59'0 0.0
2017-May-23 12:00N 20°29' W 086°59'1 1.5
2017-May-23 11:30N 20°30' W 086°59'713.3
2017-May-23 11:01N 20°36' W 086°56'3115.1
2017-May-23 09:00N 21°00' W 086°36'10617.6 150 / 271011.010.8 27.1
2017-May-23 03:00N 22°36' W 087°24'32120.0 150 / 231014.010.8 26.9
2017-May-22 11:00N 26°36' W 091°18'24718.6 100 / 211016.010.8 25.723.2
2017-May-21 21:45N 29°20' W 094°46'2 0.6
2017-May-21 17:46N 29°19' W 094°48'0 0.0
2017-May-21 17:10N 29°19' W 094°48'0 0.0
2017-May-21 16:58N 29°19' W 094°48'1 0.1
2017-May-21 10:48N 29°19' W 094°47'1 2.0
2017-May-21 10:28N 29°19' W 094°47'48419.0
2017-May-20 09:00N 23°48' W 088°12'20519.4 120 / 161010.010.8 26.325.9
2017-May-19 22:25N 20°35' W 086°56'615.3
2017-May-19 22:00N 20°29' W 086°59'0 0.6
2017-May-19 21:28N 20°29' W 086°59'0 0.0
2017-May-19 20:58N 20°29' W 086°59'0 0.0
2017-May-19 20:28N 20°29' W 086°59'0 0.0
2017-May-19 19:58N 20°29' W 086°59'0 0.0
2017-May-19 19:28N 20°29' W 086°59'0 0.0
2017-May-19 18:58N 20°29' W 086°59'0 0.0
2017-May-19 18:28N 20°29' W 086°59'0 0.0
2017-May-19 17:58N 20°29' W 086°59'0 0.0
2017-May-19 17:25N 20°29' W 086°59'0 0.0
2017-May-19 16:58N 20°29' W 086°59'0 0.0
2017-May-19 16:28N 20°29' W 086°59'0 0.0
2017-May-19 15:58N 20°29' W 086°59'0 0.0
2017-May-19 15:25N 20°29' W 086°59'0 0.0
2017-May-19 14:58N 20°29' W 086°59'0 0.0
2017-May-19 13:58N 20°29' W 086°59'0 0.0
2017-May-19 13:28N 20°29' W 086°59'0 0.0
2017-May-19 12:58N 20°29' W 086°59'0 0.0
2017-May-19 12:28N 20°29' W 086°59'0 0.0
2017-May-19 11:58N 20°29' W 086°59'0 0.5
2017-May-19 11:30N 20°29' W 086°59'5 9.3
2017-May-19 11:00N 20°26' W 087°02'214 4.3
2017-May-17 09:00N 16°54' W 086°36'8416.8 100 / 121009.010.8 26.824.2
2017-May-17 04:00N 18°18' W 086°30'36314.5 080 / 181014.010.8 27.0
2017-May-16 03:00N 24°00' W 088°42'30518.0 080 / 231015.010.8 25.6
2017-May-15 10:00N 27°18' W 093°00'15413.1 110 / 81014.010.8 24.2
2017-May-14 22:16N 29°20' W 094°46'2 0.2
2017-May-14 10:56N 29°19' W 094°48'2 3.3
2017-May-14 10:21N 29°20' W 094°47'4820.4
2017-May-14 08:00N 28°54' W 094°00'   080 / 71014.010.8 23.7
Track history (hours):
 
Tides and Currents Weather Stations Pressure Air Temp Water Temp Dewpoint Dewpoint Depression Visibility Wind Speed Wind Dir Waves Ship Positions

Liberty of The Seas

Last reported at 2017-May-24 03:00 UTC. Time now 2017-May-25 02:54 UTC.
Position N 20°18' W 085°18'.

Type: Passenger vessel. MMSI: 309436000.

Wind from 150 at 25 knots

Barometer 1011.0 mb
Visibility: greater than 10.8 NM

Date/timePositionNaut miles runAvg speedWind from/ knotsBaromVisibWave heightAir tempDewpointWater temp
2017-May-24 03:00N 20°18' W 085°18'9318.6 150 / 251011.010.8
2017-May-23 22:01N 20°36' W 086°55'020.1
2017-May-23 22:00N 20°35' W 086°55'714.2
2017-May-23 21:30N 20°29' W 086°59'0 0.3
2017-May-23 20:58N 20°29' W 086°59'0 0.0
2017-May-23 20:28N 20°29' W 086°59'0 0.0
2017-May-23 19:58N 20°29' W 086°59'0 0.0
2017-May-23 19:28N 20°29' W 086°59'0 0.0
2017-May-23 18:58N 20°29' W 086°59'0 0.0
2017-May-23 18:28N 20°29' W 086°59'0 0.0
2017-May-23 17:31N 20°29' W 086°59'0 0.0
2017-May-23 17:25N 20°29' W 086°59'0 0.0
2017-May-23 16:55N 20°29' W 086°59'0 0.0
2017-May-23 16:28N 20°29' W 086°59'0 0.0
2017-May-23 15:58N 20°29' W 086°59'0 0.0
2017-May-23 15:28N 20°29' W 086°59'0 0.0
2017-May-23 14:58N 20°29' W 086°59'0 0.0
2017-May-23 14:28N 20°29' W 086°59'0 0.0
2017-May-23 13:28N 20°29' W 086°59'0 0.0
2017-May-23 12:58N 20°29' W 086°59'0 0.0
2017-May-23 12:28N 20°29' W 086°59'0 0.0
2017-May-23 12:00N 20°29' W 086°59'1 1.5
2017-May-23 11:30N 20°30' W 086°59'713.3
2017-May-23 11:01N 20°36' W 086°56'3115.1
2017-May-23 09:00N 21°00' W 086°36'10617.6 150 / 271011.010.8 27.1
2017-May-23 03:00N 22°36' W 087°24'32120.0 150 / 231014.010.8 26.9
2017-May-22 11:00N 26°36' W 091°18'24718.6 100 / 211016.010.8 25.723.2
2017-May-21 21:45N 29°20' W 094°46'2 0.6
2017-May-21 17:46N 29°19' W 094°48'0 0.0
2017-May-21 17:10N 29°19' W 094°48'0 0.0
2017-May-21 16:58N 29°19' W 094°48'1 0.1
2017-May-21 10:48N 29°19' W 094°47'1 2.0
2017-May-21 10:28N 29°19' W 094°47'48419.0
2017-May-20 09:00N 23°48' W 088°12'20519.4 120 / 161010.010.8 26.325.9
2017-May-19 22:25N 20°35' W 086°56'615.3
2017-May-19 22:00N 20°29' W 086°59'0 0.6
2017-May-19 21:28N 20°29' W 086°59'0 0.0
2017-May-19 20:58N 20°29' W 086°59'0 0.0
2017-May-19 20:28N 20°29' W 086°59'0 0.0
2017-May-19 19:58N 20°29' W 086°59'0 0.0
2017-May-19 19:28N 20°29' W 086°59'0 0.0
2017-May-19 18:58N 20°29' W 086°59'0 0.0
2017-May-19 18:28N 20°29' W 086°59'0 0.0
2017-May-19 17:58N 20°29' W 086°59'0 0.0
2017-May-19 17:25N 20°29' W 086°59'0 0.0
2017-May-19 16:58N 20°29' W 086°59'0 0.0
2017-May-19 16:28N 20°29' W 086°59'0 0.0
2017-May-19 15:58N 20°29' W 086°59'0 0.0
2017-May-19 15:25N 20°29' W 086°59'0 0.0
2017-May-19 14:58N 20°29' W 086°59'0 0.0
2017-May-19 13:58N 20°29' W 086°59'0 0.0
2017-May-19 13:28N 20°29' W 086°59'0 0.0
2017-May-19 12:58N 20°29' W 086°59'0 0.0
2017-May-19 12:28N 20°29' W 086°59'0 0.0
2017-May-19 11:58N 20°29' W 086°59'0 0.5
2017-May-19 11:30N 20°29' W 086°59'5 9.3
2017-May-19 11:00N 20°26' W 087°02'214 4.3
2017-May-17 09:00N 16°54' W 086°36'8416.8 100 / 121009.010.8 26.824.2
2017-May-17 04:00N 18°18' W 086°30'36314.5 080 / 181014.010.8 27.0
2017-May-16 03:00N 24°00' W 088°42'30518.0 080 / 231015.010.8 25.6
2017-May-15 10:00N 27°18' W 093°00'15413.1 110 / 81014.010.8 24.2
2017-May-14 22:16N 29°20' W 094°46'2 0.2
2017-May-14 10:56N 29°19' W 094°48'2 3.3
2017-May-14 10:21N 29°20' W 094°47'4820.4
2017-May-14 08:00N 28°54' W 094°00'   080 / 71014.010.8 23.7

Dump ship's entire track history